sensor_id;sensor_type;location;lat;lon;timestamp;P1;durP1;ratioP1;P2;durP2;ratioP2
56005;SDS011;41888;44.696;10.522;2024-01-25T00:01:25;27.88;;;13.13;;
56005;SDS011;41888;44.696;10.522;2024-01-25T00:03:51;23.92;;;12.32;;
56005;SDS011;41888;44.696;10.522;2024-01-25T00:06:18;33.20;;;14.35;;
56005;SDS011;41888;44.696;10.522;2024-01-25T00:08:45;33.20;;;17.65;;
56005;SDS011;41888;44.696;10.522;2024-01-25T00:11:11;30.08;;;17.92;;
56005;SDS011;41888;44.696;10.522;2024-01-25T00:13:37;35.03;;;18.42;;
56005;SDS011;41888;44.696;10.522;2024-01-25T00:16:04;35.75;;;18.65;;
56005;SDS011;41888;44.696;10.522;2024-01-25T00:18:30;41.47;;;19.50;;
56005;SDS011;41888;44.696;10.522;2024-01-25T00:20:57;40.08;;;18.00;;
56005;SDS011;41888;44.696;10.522;2024-01-25T00:23:23;28.05;;;16.88;;
56005;SDS011;41888;44.696;10.522;2024-01-25T00:25:49;41.13;;;18.35;;
56005;SDS011;41888;44.696;10.522;2024-01-25T00:28:15;31.63;;;17.40;;
56005;SDS011;41888;44.696;10.522;2024-01-25T00:30:41;36.65;;;17.13;;
56005;SDS011;41888;44.696;10.522;2024-01-25T00:33:07;30.77;;;15.95;;
56005;SDS011;41888;44.696;10.522;2024-01-25T00:35:34;29.95;;;16.20;;
56005;SDS011;41888;44.696;10.522;2024-01-25T00:38:00;31.08;;;15.05;;
56005;SDS011;41888;44.696;10.522;2024-01-25T00:40:27;26.83;;;14.38;;
56005;SDS011;41888;44.696;10.522;2024-01-25T00:42:53;26.65;;;13.45;;
56005;SDS011;41888;44.696;10.522;2024-01-25T00:45:20;30.38;;;14.63;;
56005;SDS011;41888;44.696;10.522;2024-01-25T00:47:48;26.80;;;13.85;;
56005;SDS011;41888;44.696;10.522;2024-01-25T00:50:15;29.02;;;14.48;;
56005;SDS011;41888;44.696;10.522;2024-01-25T00:52:44;33.05;;;14.63;;
56005;SDS011;41888;44.696;10.522;2024-01-25T00:55:11;24.48;;;13.70;;
56005;SDS011;41888;44.696;10.522;2024-01-25T00:57:38;31.27;;;14.43;;
56005;SDS011;41888;44.696;10.522;2024-01-25T01:00:04;26.98;;;14.15;;
56005;SDS011;41888;44.696;10.522;2024-01-25T01:02:35;32.03;;;15.90;;
56005;SDS011;41888;44.696;10.522;2024-01-25T01:05:05;30.67;;;15.55;;
56005;SDS011;41888;44.696;10.522;2024-01-25T01:07:31;27.77;;;16.25;;
56005;SDS011;41888;44.696;10.522;2024-01-25T01:09:58;32.80;;;15.70;;
56005;SDS011;41888;44.696;10.522;2024-01-25T01:12:24;29.70;;;14.93;;
56005;SDS011;41888;44.696;10.522;2024-01-25T01:14:50;29.65;;;15.70;;
56005;SDS011;41888;44.696;10.522;2024-01-25T01:17:16;28.90;;;14.77;;
56005;SDS011;41888;44.696;10.522;2024-01-25T01:19:45;24.38;;;12.77;;
56005;SDS011;41888;44.696;10.522;2024-01-25T01:22:11;29.55;;;15.10;;
56005;SDS011;41888;44.696;10.522;2024-01-25T01:24:38;28.70;;;14.77;;
56005;SDS011;41888;44.696;10.522;2024-01-25T01:27:04;30.63;;;14.55;;
56005;SDS011;41888;44.696;10.522;2024-01-25T01:29:30;27.70;;;13.90;;
56005;SDS011;41888;44.696;10.522;2024-01-25T01:31:56;37.58;;;15.63;;
56005;SDS011;41888;44.696;10.522;2024-01-25T01:34:23;31.58;;;15.55;;
56005;SDS011;41888;44.696;10.522;2024-01-25T01:36:49;27.48;;;13.77;;
56005;SDS011;41888;44.696;10.522;2024-01-25T01:39:15;30.33;;;14.55;;
56005;SDS011;41888;44.696;10.522;2024-01-25T01:41:41;26.13;;;14.25;;
56005;SDS011;41888;44.696;10.522;2024-01-25T01:44:11;21.23;;;13.00;;
56005;SDS011;41888;44.696;10.522;2024-01-25T01:46:37;29.08;;;12.68;;
56005;SDS011;41888;44.696;10.522;2024-01-25T01:49:05;23.80;;;12.93;;
56005;SDS011;41888;44.696;10.522;2024-01-25T01:51:34;25.08;;;13.65;;
56005;SDS011;41888;44.696;10.522;2024-01-25T01:54:01;23.63;;;12.65;;
56005;SDS011;41888;44.696;10.522;2024-01-25T01:56:28;20.83;;;12.55;;
56005;SDS011;41888;44.696;10.522;2024-01-25T01:58:58;27.85;;;13.43;;
56005;SDS011;41888;44.696;10.522;2024-01-25T02:01:25;26.20;;;13.65;;
56005;SDS011;41888;44.696;10.522;2024-01-25T02:03:52;32.03;;;16.40;;
56005;SDS011;41888;44.696;10.522;2024-01-25T02:06:19;23.52;;;11.95;;
56005;SDS011;41888;44.696;10.522;2024-01-25T02:08:46;23.80;;;12.25;;
56005;SDS011;41888;44.696;10.522;2024-01-25T02:11:13;25.75;;;12.65;;
56005;SDS011;41888;44.696;10.522;2024-01-25T02:13:40;25.42;;;11.50;;
56005;SDS011;41888;44.696;10.522;2024-01-25T02:16:06;21.33;;;12.52;;
56005;SDS011;41888;44.696;10.522;2024-01-25T02:18:33;22.90;;;13.48;;
56005;SDS011;41888;44.696;10.522;2024-01-25T02:21:00;23.15;;;12.32;;
56005;SDS011;41888;44.696;10.522;2024-01-25T02:23:26;30.00;;;14.32;;
56005;SDS011;41888;44.696;10.522;2024-01-25T02:25:52;23.00;;;12.18;;
56005;SDS011;41888;44.696;10.522;2024-01-25T02:28:19;28.60;;;15.27;;
56005;SDS011;41888;44.696;10.522;2024-01-25T02:30:45;29.95;;;15.50;;
56005;SDS011;41888;44.696;10.522;2024-01-25T02:33:11;28.90;;;16.98;;
56005;SDS011;41888;44.696;10.522;2024-01-25T02:35:37;27.88;;;14.68;;
56005;SDS011;41888;44.696;10.522;2024-01-25T02:38:03;26.38;;;15.45;;
56005;SDS011;41888;44.696;10.522;2024-01-25T02:40:30;25.65;;;14.43;;
56005;SDS011;41888;44.696;10.522;2024-01-25T02:42:56;24.55;;;14.20;;
56005;SDS011;41888;44.696;10.522;2024-01-25T02:45:22;23.90;;;12.55;;
56005;SDS011;41888;44.696;10.522;2024-01-25T02:47:49;28.95;;;14.13;;
56005;SDS011;41888;44.696;10.522;2024-01-25T02:50:15;21.92;;;13.38;;
56005;SDS011;41888;44.696;10.522;2024-01-25T02:52:41;22.83;;;13.68;;
56005;SDS011;41888;44.696;10.522;2024-01-25T02:55:08;24.80;;;13.82;;
56005;SDS011;41888;44.696;10.522;2024-01-25T02:57:34;30.05;;;15.07;;
56005;SDS011;41888;44.696;10.522;2024-01-25T03:00:00;24.65;;;13.82;;
56005;SDS011;41888;44.696;10.522;2024-01-25T03:02:27;25.05;;;13.70;;
56005;SDS011;41888;44.696;10.522;2024-01-25T03:04:53;26.88;;;13.85;;
56005;SDS011;41888;44.696;10.522;2024-01-25T03:07:19;26.90;;;14.23;;
56005;SDS011;41888;44.696;10.522;2024-01-25T03:09:45;26.42;;;14.48;;
56005;SDS011;41888;44.696;10.522;2024-01-25T03:12:11;26.17;;;13.10;;
56005;SDS011;41888;44.696;10.522;2024-01-25T03:14:38;26.42;;;12.57;;
56005;SDS011;41888;44.696;10.522;2024-01-25T03:17:04;22.45;;;12.75;;
56005;SDS011;41888;44.696;10.522;2024-01-25T03:19:30;28.25;;;14.38;;
56005;SDS011;41888;44.696;10.522;2024-01-25T03:21:56;21.98;;;13.27;;
56005;SDS011;41888;44.696;10.522;2024-01-25T03:24:23;22.38;;;12.85;;
56005;SDS011;41888;44.696;10.522;2024-01-25T03:26:49;21.88;;;12.35;;
56005;SDS011;41888;44.696;10.522;2024-01-25T03:29:15;28.15;;;12.95;;
56005;SDS011;41888;44.696;10.522;2024-01-25T03:31:42;24.95;;;13.63;;
56005;SDS011;41888;44.696;10.522;2024-01-25T03:34:08;21.55;;;11.80;;
56005;SDS011;41888;44.696;10.522;2024-01-25T03:36:34;26.77;;;12.70;;
56005;SDS011;41888;44.696;10.522;2024-01-25T03:39:01;23.00;;;12.02;;
56005;SDS011;41888;44.696;10.522;2024-01-25T03:41:28;25.35;;;12.65;;
56005;SDS011;41888;44.696;10.522;2024-01-25T03:43:54;30.33;;;13.77;;
56005;SDS011;41888;44.696;10.522;2024-01-25T03:46:20;22.92;;;14.02;;
56005;SDS011;41888;44.696;10.522;2024-01-25T03:48:46;30.17;;;15.35;;
56005;SDS011;41888;44.696;10.522;2024-01-25T03:51:12;24.95;;;13.55;;
56005;SDS011;41888;44.696;10.522;2024-01-25T03:53:39;25.25;;;13.73;;
56005;SDS011;41888;44.696;10.522;2024-01-25T03:56:11;24.33;;;12.70;;
56005;SDS011;41888;44.696;10.522;2024-01-25T03:58:38;34.05;;;16.20;;
56005;SDS011;41888;44.696;10.522;2024-01-25T04:01:04;27.73;;;12.90;;
56005;SDS011;41888;44.696;10.522;2024-01-25T04:03:30;24.52;;;13.63;;
56005;SDS011;41888;44.696;10.522;2024-01-25T04:05:57;20.88;;;12.75;;
56005;SDS011;41888;44.696;10.522;2024-01-25T04:08:23;23.33;;;13.25;;
56005;SDS011;41888;44.696;10.522;2024-01-25T04:10:49;40.45;;;14.93;;
56005;SDS011;41888;44.696;10.522;2024-01-25T04:13:15;33.42;;;14.27;;
56005;SDS011;41888;44.696;10.522;2024-01-25T04:15:41;25.02;;;13.27;;
56005;SDS011;41888;44.696;10.522;2024-01-25T04:18:07;30.75;;;14.07;;
56005;SDS011;41888;44.696;10.522;2024-01-25T04:20:33;24.90;;;13.55;;
56005;SDS011;41888;44.696;10.522;2024-01-25T04:23:00;25.77;;;13.63;;
56005;SDS011;41888;44.696;10.522;2024-01-25T04:25:26;25.75;;;14.55;;
56005;SDS011;41888;44.696;10.522;2024-01-25T04:27:52;29.55;;;15.32;;
56005;SDS011;41888;44.696;10.522;2024-01-25T04:30:19;29.35;;;15.65;;
56005;SDS011;41888;44.696;10.522;2024-01-25T04:32:45;25.40;;;14.80;;
56005;SDS011;41888;44.696;10.522;2024-01-25T04:35:11;27.42;;;15.07;;
56005;SDS011;41888;44.696;10.522;2024-01-25T04:37:37;30.77;;;15.55;;
56005;SDS011;41888;44.696;10.522;2024-01-25T04:40:03;34.53;;;16.08;;
56005;SDS011;41888;44.696;10.522;2024-01-25T04:42:31;26.58;;;14.80;;
56005;SDS011;41888;44.696;10.522;2024-01-25T04:44:57;32.58;;;15.98;;
56005;SDS011;41888;44.696;10.522;2024-01-25T04:47:23;34.92;;;16.83;;
56005;SDS011;41888;44.696;10.522;2024-01-25T04:49:49;33.55;;;17.73;;
56005;SDS011;41888;44.696;10.522;2024-01-25T04:52:15;33.00;;;18.17;;
56005;SDS011;41888;44.696;10.522;2024-01-25T04:54:42;38.13;;;18.20;;
56005;SDS011;41888;44.696;10.522;2024-01-25T04:57:08;38.55;;;18.08;;
56005;SDS011;41888;44.696;10.522;2024-01-25T04:59:34;36.80;;;18.25;;
56005;SDS011;41888;44.696;10.522;2024-01-25T05:02:00;42.47;;;20.88;;
56005;SDS011;41888;44.696;10.522;2024-01-25T05:04:28;36.70;;;19.65;;
56005;SDS011;41888;44.696;10.522;2024-01-25T05:06:56;42.83;;;21.27;;
56005;SDS011;41888;44.696;10.522;2024-01-25T05:09:22;35.20;;;17.75;;
56005;SDS011;41888;44.696;10.522;2024-01-25T05:11:48;40.78;;;19.85;;
56005;SDS011;41888;44.696;10.522;2024-01-25T05:14:15;33.42;;;18.88;;
56005;SDS011;41888;44.696;10.522;2024-01-25T05:16:41;43.15;;;19.58;;
56005;SDS011;41888;44.696;10.522;2024-01-25T05:19:07;45.47;;;21.13;;
56005;SDS011;41888;44.696;10.522;2024-01-25T05:21:33;35.95;;;18.70;;
56005;SDS011;41888;44.696;10.522;2024-01-25T05:23:59;47.40;;;20.23;;
56005;SDS011;41888;44.696;10.522;2024-01-25T05:26:26;40.85;;;20.83;;
56005;SDS011;41888;44.696;10.522;2024-01-25T05:28:52;41.28;;;20.00;;
56005;SDS011;41888;44.696;10.522;2024-01-25T05:31:18;44.65;;;22.88;;
56005;SDS011;41888;44.696;10.522;2024-01-25T05:33:44;46.22;;;21.60;;
56005;SDS011;41888;44.696;10.522;2024-01-25T05:36:10;38.13;;;21.27;;
56005;SDS011;41888;44.696;10.522;2024-01-25T05:38:38;44.72;;;23.38;;
56005;SDS011;41888;44.696;10.522;2024-01-25T05:41:04;45.97;;;22.65;;
56005;SDS011;41888;44.696;10.522;2024-01-25T05:43:31;46.30;;;21.90;;
56005;SDS011;41888;44.696;10.522;2024-01-25T05:45:58;44.47;;;20.52;;
56005;SDS011;41888;44.696;10.522;2024-01-25T05:48:24;51.13;;;21.55;;
56005;SDS011;41888;44.696;10.522;2024-01-25T05:50:51;50.08;;;21.60;;
56005;SDS011;41888;44.696;10.522;2024-01-25T05:53:17;50.70;;;23.15;;
56005;SDS011;41888;44.696;10.522;2024-01-25T05:55:44;56.65;;;25.42;;
56005;SDS011;41888;44.696;10.522;2024-01-25T05:58:11;37.28;;;20.20;;
56005;SDS011;41888;44.696;10.522;2024-01-25T06:00:37;39.85;;;20.05;;
56005;SDS011;41888;44.696;10.522;2024-01-25T06:03:03;44.58;;;22.65;;
56005;SDS011;41888;44.696;10.522;2024-01-25T06:05:30;49.28;;;21.50;;
56005;SDS011;41888;44.696;10.522;2024-01-25T06:07:57;53.05;;;23.70;;
56005;SDS011;41888;44.696;10.522;2024-01-25T06:10:23;49.42;;;21.33;;
56005;SDS011;41888;44.696;10.522;2024-01-25T06:12:49;42.35;;;21.23;;
56005;SDS011;41888;44.696;10.522;2024-01-25T06:15:15;52.60;;;24.83;;
56005;SDS011;41888;44.696;10.522;2024-01-25T06:17:41;49.40;;;22.63;;
56005;SDS011;41888;44.696;10.522;2024-01-25T06:20:08;50.92;;;24.42;;
56005;SDS011;41888;44.696;10.522;2024-01-25T06:22:35;50.70;;;22.02;;
56005;SDS011;41888;44.696;10.522;2024-01-25T06:25:01;50.42;;;25.92;;
56005;SDS011;41888;44.696;10.522;2024-01-25T06:27:30;45.75;;;20.83;;
56005;SDS011;41888;44.696;10.522;2024-01-25T06:29:57;50.10;;;22.20;;
56005;SDS011;41888;44.696;10.522;2024-01-25T06:32:23;50.03;;;23.08;;
56005;SDS011;41888;44.696;10.522;2024-01-25T06:34:49;52.28;;;24.27;;
56005;SDS011;41888;44.696;10.522;2024-01-25T06:37:15;50.20;;;23.77;;
56005;SDS011;41888;44.696;10.522;2024-01-25T06:39:43;49.03;;;24.85;;
56005;SDS011;41888;44.696;10.522;2024-01-25T06:42:09;51.85;;;26.40;;
56005;SDS011;41888;44.696;10.522;2024-01-25T06:44:36;52.75;;;24.67;;
56005;SDS011;41888;44.696;10.522;2024-01-25T06:47:02;51.38;;;25.70;;
56005;SDS011;41888;44.696;10.522;2024-01-25T06:49:29;52.38;;;25.88;;
56005;SDS011;41888;44.696;10.522;2024-01-25T06:51:55;48.08;;;24.60;;
56005;SDS011;41888;44.696;10.522;2024-01-25T06:54:21;46.83;;;23.48;;
56005;SDS011;41888;44.696;10.522;2024-01-25T06:56:47;55.10;;;25.25;;
56005;SDS011;41888;44.696;10.522;2024-01-25T06:59:16;54.13;;;27.02;;
56005;SDS011;41888;44.696;10.522;2024-01-25T07:01:42;62.60;;;29.75;;
56005;SDS011;41888;44.696;10.522;2024-01-25T07:04:09;52.05;;;26.45;;
56005;SDS011;41888;44.696;10.522;2024-01-25T07:06:35;55.20;;;25.17;;
56005;SDS011;41888;44.696;10.522;2024-01-25T07:09:01;61.88;;;29.48;;
56005;SDS011;41888;44.696;10.522;2024-01-25T07:11:27;59.35;;;26.63;;
56005;SDS011;41888;44.696;10.522;2024-01-25T07:13:54;56.65;;;26.60;;
56005;SDS011;41888;44.696;10.522;2024-01-25T07:16:20;54.92;;;26.98;;
56005;SDS011;41888;44.696;10.522;2024-01-25T07:18:47;57.67;;;27.90;;
56005;SDS011;41888;44.696;10.522;2024-01-25T07:21:13;49.85;;;24.90;;
56005;SDS011;41888;44.696;10.522;2024-01-25T07:23:39;51.17;;;26.38;;
56005;SDS011;41888;44.696;10.522;2024-01-25T07:26:05;47.40;;;22.58;;
56005;SDS011;41888;44.696;10.522;2024-01-25T07:28:31;48.25;;;23.42;;
56005;SDS011;41888;44.696;10.522;2024-01-25T07:30:58;46.20;;;21.63;;
56005;SDS011;41888;44.696;10.522;2024-01-25T07:33:24;38.20;;;19.75;;
56005;SDS011;41888;44.696;10.522;2024-01-25T07:35:50;40.60;;;20.58;;
56005;SDS011;41888;44.696;10.522;2024-01-25T07:38:16;39.03;;;20.00;;
56005;SDS011;41888;44.696;10.522;2024-01-25T07:40:44;42.47;;;21.05;;
56005;SDS011;41888;44.696;10.522;2024-01-25T07:43:10;43.17;;;20.40;;
56005;SDS011;41888;44.696;10.522;2024-01-25T07:45:36;41.10;;;20.50;;
56005;SDS011;41888;44.696;10.522;2024-01-25T07:48:04;37.55;;;19.27;;
56005;SDS011;41888;44.696;10.522;2024-01-25T07:50:30;44.65;;;22.00;;
56005;SDS011;41888;44.696;10.522;2024-01-25T07:52:56;35.25;;;19.10;;
56005;SDS011;41888;44.696;10.522;2024-01-25T07:55:23;40.42;;;20.15;;
56005;SDS011;41888;44.696;10.522;2024-01-25T07:57:49;44.35;;;22.65;;
56005;SDS011;41888;44.696;10.522;2024-01-25T08:00:15;48.40;;;23.05;;
56005;SDS011;41888;44.696;10.522;2024-01-25T08:02:41;49.78;;;24.55;;
56005;SDS011;41888;44.696;10.522;2024-01-25T08:05:10;44.38;;;24.75;;
56005;SDS011;41888;44.696;10.522;2024-01-25T08:07:36;48.33;;;23.38;;
56005;SDS011;41888;44.696;10.522;2024-01-25T08:10:03;53.08;;;25.35;;
56005;SDS011;41888;44.696;10.522;2024-01-25T08:12:30;46.45;;;22.60;;
56005;SDS011;41888;44.696;10.522;2024-01-25T08:14:56;46.03;;;23.67;;
56005;SDS011;41888;44.696;10.522;2024-01-25T08:17:22;49.95;;;24.38;;
56005;SDS011;41888;44.696;10.522;2024-01-25T08:19:49;63.97;;;27.23;;
56005;SDS011;41888;44.696;10.522;2024-01-25T08:22:15;77.75;;;35.78;;
56005;SDS011;41888;44.696;10.522;2024-01-25T08:24:41;83.25;;;35.33;;
56005;SDS011;41888;44.696;10.522;2024-01-25T08:27:08;80.80;;;34.22;;
56005;SDS011;41888;44.696;10.522;2024-01-25T08:29:34;65.07;;;32.50;;
56005;SDS011;41888;44.696;10.522;2024-01-25T08:32:02;53.95;;;28.95;;
56005;SDS011;41888;44.696;10.522;2024-01-25T08:34:28;53.88;;;28.90;;
56005;SDS011;41888;44.696;10.522;2024-01-25T08:36:55;55.63;;;29.55;;
56005;SDS011;41888;44.696;10.522;2024-01-25T08:39:21;51.60;;;27.02;;
56005;SDS011;41888;44.696;10.522;2024-01-25T08:41:47;53.70;;;28.02;;
56005;SDS011;41888;44.696;10.522;2024-01-25T08:44:15;52.92;;;26.67;;
56005;SDS011;41888;44.696;10.522;2024-01-25T08:46:41;56.78;;;26.17;;
56005;SDS011;41888;44.696;10.522;2024-01-25T08:49:08;38.50;;;22.55;;
56005;SDS011;41888;44.696;10.522;2024-01-25T08:51:37;46.75;;;25.50;;
56005;SDS011;41888;44.696;10.522;2024-01-25T08:54:03;46.85;;;28.55;;
56005;SDS011;41888;44.696;10.522;2024-01-25T08:56:30;48.58;;;29.00;;
56005;SDS011;41888;44.696;10.522;2024-01-25T08:58:56;40.58;;;24.73;;
56005;SDS011;41888;44.696;10.522;2024-01-25T09:01:22;45.28;;;25.25;;
56005;SDS011;41888;44.696;10.522;2024-01-25T09:03:48;41.97;;;27.63;;
56005;SDS011;41888;44.696;10.522;2024-01-25T09:06:14;40.88;;;24.70;;
56005;SDS011;41888;44.696;10.522;2024-01-25T09:08:41;43.65;;;24.25;;
56005;SDS011;41888;44.696;10.522;2024-01-25T09:11:07;47.70;;;26.65;;
56005;SDS011;41888;44.696;10.522;2024-01-25T09:13:33;56.05;;;29.88;;
56005;SDS011;41888;44.696;10.522;2024-01-25T09:15:59;42.10;;;24.58;;
56005;SDS011;41888;44.696;10.522;2024-01-25T09:18:26;40.53;;;23.58;;
56005;SDS011;41888;44.696;10.522;2024-01-25T09:20:52;45.90;;;26.20;;
56005;SDS011;41888;44.696;10.522;2024-01-25T09:23:18;37.78;;;23.95;;
56005;SDS011;41888;44.696;10.522;2024-01-25T09:25:45;40.88;;;18.75;;
56005;SDS011;41888;44.696;10.522;2024-01-25T09:28:11;37.00;;;18.77;;
56005;SDS011;41888;44.696;10.522;2024-01-25T09:30:41;38.78;;;25.48;;
56005;SDS011;41888;44.696;10.522;2024-01-25T09:33:07;34.20;;;22.70;;
56005;SDS011;41888;44.696;10.522;2024-01-25T09:35:34;42.95;;;23.23;;
56005;SDS011;41888;44.696;10.522;2024-01-25T09:38:00;40.97;;;22.38;;
56005;SDS011;41888;44.696;10.522;2024-01-25T09:40:27;36.88;;;21.63;;
56005;SDS011;41888;44.696;10.522;2024-01-25T09:42:54;47.38;;;22.20;;
56005;SDS011;41888;44.696;10.522;2024-01-25T09:45:21;37.75;;;21.58;;
56005;SDS011;41888;44.696;10.522;2024-01-25T09:47:49;35.95;;;20.45;;
56005;SDS011;41888;44.696;10.522;2024-01-25T09:50:15;30.65;;;19.52;;
56005;SDS011;41888;44.696;10.522;2024-01-25T09:52:45;32.45;;;19.23;;
56005;SDS011;41888;44.696;10.522;2024-01-25T09:55:20;31.75;;;20.08;;
56005;SDS011;41888;44.696;10.522;2024-01-25T09:57:55;42.20;;;22.48;;
56005;SDS011;41888;44.696;10.522;2024-01-25T10:00:22;32.58;;;20.77;;
56005;SDS011;41888;44.696;10.522;2024-01-25T10:02:49;31.45;;;20.63;;
56005;SDS011;41888;44.696;10.522;2024-01-25T10:05:16;42.92;;;24.75;;
56005;SDS011;41888;44.696;10.522;2024-01-25T10:07:43;40.63;;;21.13;;
56005;SDS011;41888;44.696;10.522;2024-01-25T10:10:11;34.72;;;21.77;;
56005;SDS011;41888;44.696;10.522;2024-01-25T10:12:39;38.42;;;22.60;;
56005;SDS011;41888;44.696;10.522;2024-01-25T10:15:07;79.50;;;33.88;;
56005;SDS011;41888;44.696;10.522;2024-01-25T10:17:34;44.63;;;23.65;;
56005;SDS011;41888;44.696;10.522;2024-01-25T10:20:00;42.55;;;24.92;;
56005;SDS011;41888;44.696;10.522;2024-01-25T10:22:32;50.92;;;24.42;;
56005;SDS011;41888;44.696;10.522;2024-01-25T10:24:58;42.95;;;22.42;;
56005;SDS011;41888;44.696;10.522;2024-01-25T10:27:24;44.22;;;23.77;;
56005;SDS011;41888;44.696;10.522;2024-01-25T10:29:50;39.00;;;23.23;;
56005;SDS011;41888;44.696;10.522;2024-01-25T10:32:16;41.97;;;23.48;;
56005;SDS011;41888;44.696;10.522;2024-01-25T10:34:43;51.60;;;25.60;;
56005;SDS011;41888;44.696;10.522;2024-01-25T10:37:11;39.83;;;20.80;;
56005;SDS011;41888;44.696;10.522;2024-01-25T10:39:41;39.65;;;21.58;;
56005;SDS011;41888;44.696;10.522;2024-01-25T10:42:07;36.25;;;23.27;;
56005;SDS011;41888;44.696;10.522;2024-01-25T10:44:33;47.25;;;25.08;;
56005;SDS011;41888;44.696;10.522;2024-01-25T10:47:00;46.35;;;27.13;;
56005;SDS011;41888;44.696;10.522;2024-01-25T10:49:26;48.33;;;29.85;;
56005;SDS011;41888;44.696;10.522;2024-01-25T10:51:54;43.10;;;26.08;;
56005;SDS011;41888;44.696;10.522;2024-01-25T10:54:20;46.90;;;28.08;;
56005;SDS011;41888;44.696;10.522;2024-01-25T10:56:47;44.03;;;27.75;;
56005;SDS011;41888;44.696;10.522;2024-01-25T10:59:15;71.75;;;30.55;;
56005;SDS011;41888;44.696;10.522;2024-01-25T11:01:46;43.30;;;25.95;;
56005;SDS011;41888;44.696;10.522;2024-01-25T11:04:16;45.10;;;27.85;;
56005;SDS011;41888;44.696;10.522;2024-01-25T11:06:44;51.40;;;29.15;;
56005;SDS011;41888;44.696;10.522;2024-01-25T11:09:18;48.20;;;26.58;;
56005;SDS011;41888;44.696;10.522;2024-01-25T11:11:49;41.22;;;26.95;;
56005;SDS011;41888;44.696;10.522;2024-01-25T11:14:19;39.80;;;25.75;;
56005;SDS011;41888;44.696;10.522;2024-01-25T11:16:45;41.47;;;28.05;;
56005;SDS011;41888;44.696;10.522;2024-01-25T11:19:21;45.83;;;29.55;;
56005;SDS011;41888;44.696;10.522;2024-01-25T11:21:52;51.15;;;31.83;;
56005;SDS011;41888;44.696;10.522;2024-01-25T11:24:23;54.97;;;35.92;;
56005;SDS011;41888;44.696;10.522;2024-01-25T11:26:54;56.80;;;34.83;;
56005;SDS011;41888;44.696;10.522;2024-01-25T11:29:21;64.13;;;36.92;;
56005;SDS011;41888;44.696;10.522;2024-01-25T11:31:50;65.07;;;39.95;;
56005;SDS011;41888;44.696;10.522;2024-01-25T11:34:16;61.80;;;36.30;;
56005;SDS011;41888;44.696;10.522;2024-01-25T11:36:43;61.17;;;38.55;;
56005;SDS011;41888;44.696;10.522;2024-01-25T11:39:10;57.90;;;37.13;;
56005;SDS011;41888;44.696;10.522;2024-01-25T11:41:38;68.65;;;40.40;;
56005;SDS011;41888;44.696;10.522;2024-01-25T11:44:04;62.97;;;37.30;;
56005;SDS011;41888;44.696;10.522;2024-01-25T11:46:31;67.25;;;37.53;;
56005;SDS011;41888;44.696;10.522;2024-01-25T11:48:58;58.58;;;38.40;;
56005;SDS011;41888;44.696;10.522;2024-01-25T11:51:24;61.72;;;38.08;;
56005;SDS011;41888;44.696;10.522;2024-01-25T11:53:50;63.55;;;38.35;;
56005;SDS011;41888;44.696;10.522;2024-01-25T11:56:20;61.63;;;36.83;;
56005;SDS011;41888;44.696;10.522;2024-01-25T11:58:58;58.63;;;37.90;;
56005;SDS011;41888;44.696;10.522;2024-01-25T12:01:25;59.28;;;36.58;;
56005;SDS011;41888;44.696;10.522;2024-01-25T12:03:53;56.25;;;35.92;;
56005;SDS011;41888;44.696;10.522;2024-01-25T12:06:19;50.15;;;32.22;;
56005;SDS011;41888;44.696;10.522;2024-01-25T12:08:45;58.40;;;33.00;;
56005;SDS011;41888;44.696;10.522;2024-01-25T12:11:13;57.13;;;33.38;;
56005;SDS011;41888;44.696;10.522;2024-01-25T12:13:40;52.60;;;32.72;;
56005;SDS011;41888;44.696;10.522;2024-01-25T12:16:11;55.42;;;32.85;;
56005;SDS011;41888;44.696;10.522;2024-01-25T12:18:39;46.03;;;30.35;;
56005;SDS011;41888;44.696;10.522;2024-01-25T12:21:08;44.33;;;28.98;;
56005;SDS011;41888;44.696;10.522;2024-01-25T12:23:35;48.20;;;32.60;;
56005;SDS011;41888;44.696;10.522;2024-01-25T12:26:05;48.90;;;32.08;;
56005;SDS011;41888;44.696;10.522;2024-01-25T12:28:33;47.28;;;31.13;;
56005;SDS011;41888;44.696;10.522;2024-01-25T12:31:00;47.50;;;31.65;;
56005;SDS011;41888;44.696;10.522;2024-01-25T12:33:28;49.17;;;31.98;;
56005;SDS011;41888;44.696;10.522;2024-01-25T12:35:55;48.33;;;31.73;;
56005;SDS011;41888;44.696;10.522;2024-01-25T12:38:24;47.67;;;32.05;;
56005;SDS011;41888;44.696;10.522;2024-01-25T12:40:51;47.72;;;30.98;;
56005;SDS011;41888;44.696;10.522;2024-01-25T12:43:18;48.95;;;31.83;;
56005;SDS011;41888;44.696;10.522;2024-01-25T12:45:48;45.40;;;30.77;;
56005;SDS011;41888;44.696;10.522;2024-01-25T12:48:14;52.10;;;32.78;;
56005;SDS011;41888;44.696;10.522;2024-01-25T12:50:41;46.70;;;31.77;;
56005;SDS011;41888;44.696;10.522;2024-01-25T12:53:07;51.50;;;34.80;;
56005;SDS011;41888;44.696;10.522;2024-01-25T12:55:37;52.60;;;33.92;;
56005;SDS011;41888;44.696;10.522;2024-01-25T12:58:03;51.72;;;33.67;;
56005;SDS011;41888;44.696;10.522;2024-01-25T13:00:30;50.47;;;33.35;;
56005;SDS011;41888;44.696;10.522;2024-01-25T13:02:57;49.75;;;34.45;;
56005;SDS011;41888;44.696;10.522;2024-01-25T13:05:25;53.90;;;34.30;;
56005;SDS011;41888;44.696;10.522;2024-01-25T13:07:52;60.13;;;36.88;;
56005;SDS011;41888;44.696;10.522;2024-01-25T13:10:18;65.07;;;37.97;;
56005;SDS011;41888;44.696;10.522;2024-01-25T13:12:45;53.97;;;36.30;;
56005;SDS011;41888;44.696;10.522;2024-01-25T13:15:11;57.45;;;36.78;;
56005;SDS011;41888;44.696;10.522;2024-01-25T13:17:37;57.47;;;36.50;;
56005;SDS011;41888;44.696;10.522;2024-01-25T13:20:04;66.07;;;38.17;;
56005;SDS011;41888;44.696;10.522;2024-01-25T13:22:33;66.38;;;36.95;;
56005;SDS011;41888;44.696;10.522;2024-01-25T13:25:00;64.50;;;37.67;;
56005;SDS011;41888;44.696;10.522;2024-01-25T13:27:26;58.00;;;37.85;;
56005;SDS011;41888;44.696;10.522;2024-01-25T13:29:53;55.53;;;35.15;;
56005;SDS011;41888;44.696;10.522;2024-01-25T13:32:20;57.40;;;35.30;;
56005;SDS011;41888;44.696;10.522;2024-01-25T13:34:47;65.50;;;38.67;;
56005;SDS011;41888;44.696;10.522;2024-01-25T13:37:14;65.85;;;38.20;;
56005;SDS011;41888;44.696;10.522;2024-01-25T13:39:40;65.10;;;38.83;;
56005;SDS011;41888;44.696;10.522;2024-01-25T13:42:06;66.40;;;39.47;;
56005;SDS011;41888;44.696;10.522;2024-01-25T13:44:32;82.55;;;41.00;;
56005;SDS011;41888;44.696;10.522;2024-01-25T13:46:58;77.40;;;41.60;;
56005;SDS011;41888;44.696;10.522;2024-01-25T13:49:26;73.80;;;44.05;;
56005;SDS011;41888;44.696;10.522;2024-01-25T13:51:52;72.78;;;42.22;;
56005;SDS011;41888;44.696;10.522;2024-01-25T13:54:19;79.80;;;42.45;;
56005;SDS011;41888;44.696;10.522;2024-01-25T13:56:45;75.35;;;43.00;;
56005;SDS011;41888;44.696;10.522;2024-01-25T13:59:11;76.05;;;43.53;;
56005;SDS011;41888;44.696;10.522;2024-01-25T14:01:38;91.93;;;50.70;;
56005;SDS011;41888;44.696;10.522;2024-01-25T14:04:04;90.68;;;52.97;;
56005;SDS011;41888;44.696;10.522;2024-01-25T14:06:30;99.32;;;56.33;;